Airfield :
LOGIN :

Register | Disclaimer

   EN    FR    IT 

 










Legend :    VFR   Marginal VFR   IFR   Intensive IFR   Very Intensive IFR
Visi :
Ceiling :
>= 8 km
>= 3000ft
5 to 8 km
1000 to 3000 ft
1500m to 5 km
500 to 1000 ft
800 to 1500m
200 to 500 ft
< 800m
< 200 ft
Symbols :   Thunderstorms  Fog  Heavy snow  Heavy precipitations  Wind > 20 kt
SIGMETs :     Misc.  Thunderstorms  Icing  Turbulence  Mountain Waves  Volcanic Ashes






- Airport Elevation : 42 ft
- IATA code : LMO


EGQS - Lossiemouth

CURRENT METAR :
  • 280550Z 24003KT 9999 FEW024 BKN030 OVC060 00/M00 Q0982 RMK BLU

EXPIRED METARs :
  • 280450Z 10006KT 9999 -RASN FEW015 BKN034 OVC050 01/00 Q0982 RERA RMK BLU
  • 280350Z 04001KT 4000 RASN FEW012 BKN015 BKN027 01/M00 Q0982 RMK GRN
  • 280327Z 12002KT 3000 RASN BKN012 BKN018 BKN028 02/M00 Q0982 RMK YLO1

TAF TAF EGQS
Valid from the 28 at 06:00 until the 29 at 00:00 UTC


280439Z 2806/2824 16008KT 9999 FEW015 BKN030
TEMPO 2806/2808 6000 RASN BKN015
BECMG 2819/2822 23015G25KT
PROB30
TEMPO 2819/2824 7000 SHRASN SCT015



MET'MAP, your aeronautical weather chart ! - Copyright ORBIFLY December 2007 - Disclaimer

ORBIFLY MET'MAP TEAM :

Programming & Development : Alexandra Zaïnal
Concept & original design : Baudouin d'Aumeries
Assistance for programming : Marc-Olivier Méhu
Technical & hardware support : Manuel Goepfert

Contact : metmap@orbifly.com




SOURCES & CREDITS :

   NOAA